Time;durP1;ratioP1;P1;durP2;ratioP2;P2;SDS_P1;SDS_P2;PMS_P1;PMS_P2;Temp;Humidity;BMP_temperature;BMP_pressure;BME280_temperature;BME280_humidity;BME280_pressure;Samples;Min_cycle;Max_cycle;Signal;HPM_P1;HPM_P2
2021/09/18 00:00:29;;;;;;;;;15.75;13.00;;;;;;;;6156730;23;46919;-84
2021/09/18 00:02:54;;;;;;;;;15.25;13.75;;;;;;;;6156411;23;46859;-84
2021/09/18 00:05:20;;;;;;;;;13.50;13.25;;;;;;;;6182952;23;47733;-83
2021/09/18 00:07:45;;;;;;;;;12.50;11.50;;;;;;;;6182985;23;46806;-84
2021/09/18 00:10:10;;;;;;;;;12.50;12.00;;;;;;;;6183368;23;47064;-84
2021/09/18 00:12:36;;;;;;;;;12.50;11.00;;;;;;;;6184773;23;47025;-83
2021/09/18 00:15:02;;;;;;;;;11.50;11.25;;;;;;;;6184643;23;46875;-84
2021/09/18 00:17:28;;;;;;;;;13.50;10.75;;;;;;;;6184778;23;46890;-84
2021/09/18 00:19:54;;;;;;;;;16.00;14.00;;;;;;;;6184941;23;46796;-83
2021/09/18 00:22:19;;;;;;;;;11.00;11.00;;;;;;;;6184494;23;47102;-83
2021/09/18 00:24:44;;;;;;;;;11.25;11.00;;;;;;;;6184654;23;46736;-83
2021/09/18 00:27:10;;;;;;;;;15.00;13.00;;;;;;;;6184513;23;46840;-84
2021/09/18 00:29:35;;;;;;;;;11.75;10.75;;;;;;;;6184696;23;46693;-83
2021/09/18 00:32:01;;;;;;;;;12.00;11.00;;;;;;;;6184828;23;47145;-82
2021/09/18 00:34:26;;;;;;;;;13.00;12.00;;;;;;;;6184609;23;46762;-82
2021/09/18 00:36:52;;;;;;;;;11.25;10.25;;;;;;;;6183910;23;46826;-83
2021/09/18 00:39:17;;;;;;;;;11.00;11.00;;;;;;;;6185141;23;46749;-84
2021/09/18 00:41:42;;;;;;;;;13.50;12.25;;;;;;;;6184543;23;46714;-82
2021/09/18 00:44:15;;;;;;;;;14.25;13.25;;;;;;;;6184692;23;46934;-83
2021/09/18 00:46:40;;;;;;;;;2.75;2.50;;;;;;;;6184430;23;47034;-84
2021/09/18 00:49:05;;;;;;;;;12.50;12.50;;;;;;;;6185025;23;46997;-83
2021/09/18 00:51:31;;;;;;;;;13.00;13.00;;;;;;;;6184718;23;46855;-83
2021/09/18 00:53:56;;;;;;;;;13.25;13.00;;;;;;;;6184744;23;47629;-84
2021/09/18 00:56:21;;;;;;;;;13.00;12.50;;;;;;;;6184540;23;46908;-83
2021/09/18 00:58:47;;;;;;;;;12.00;12.00;;;;;;;;6184246;23;46742;-83
2021/09/18 01:01:12;;;;;;;;;13.75;12.75;;;;;;;;6184877;23;46710;-84
2021/09/18 01:03:37;;;;;;;;;9.75;8.75;;;;;;;;6184314;23;47939;-84
2021/09/18 01:06:03;;;;;;;;;13.50;12.25;;;;;;;;6184172;23;46976;-83
2021/09/18 01:08:29;;;;;;;;;12.75;12.00;;;;;;;;6184462;23;46853;-83
2021/09/18 01:10:55;;;;;;;;;13.75;13.75;;;;;;;;6184387;23;46846;-82
2021/09/18 01:13:20;;;;;;;;;11.50;11.50;;;;;;;;6156956;23;46985;-83
2021/09/18 01:15:47;;;;;;;;;12.50;11.25;;;;;;;;6157236;23;47734;-82
2021/09/18 01:18:12;;;;;;;;;11.25;10.50;;;;;;;;6184178;23;46872;-82
2021/09/18 01:20:38;;;;;;;;;13.50;13.50;;;;;;;;6184334;23;46909;-82
2021/09/18 01:23:05;;;;;;;;;16.50;14.75;;;;;;;;6183854;23;47451;-83
2021/09/18 01:25:31;;;;;;;;;16.25;14.50;;;;;;;;6184364;23;46862;-84
2021/09/18 01:27:57;;;;;;;;;11.50;11.50;;;;;;;;6184384;23;46767;-82
2021/09/18 01:30:28;;;;;;;;;12.75;12.75;;;;;;;;6184691;23;47049;-83
2021/09/18 01:32:54;;;;;;;;;15.25;12.75;;;;;;;;6183923;23;46763;-84
2021/09/18 01:35:19;;;;;;;;;15.75;14.00;;;;;;;;6156919;23;46888;-84
2021/09/18 01:37:46;;;;;;;;;16.00;14.00;;;;;;;;6184023;23;47221;-83
2021/09/18 01:40:12;;;;;;;;;11.75;11.50;;;;;;;;6157265;23;46721;-83
2021/09/18 01:42:42;;;;;;;;;13.25;12.00;;;;;;;;6183864;23;47614;-82
2021/09/18 01:45:08;;;;;;;;;12.50;12.00;;;;;;;;6183496;23;46751;-83
2021/09/18 01:47:42;;;;;;;;;17.25;14.75;;;;;;;;6184250;23;46680;-84
2021/09/18 01:50:28;;;;;;;;;13.00;13.00;;;;;;;;6184320;23;46807;-83
2021/09/18 01:52:55;;;;;;;;;13.75;12.00;;;;;;;;6183522;23;47789;-83
2021/09/18 01:55:20;;;;;;;;;13.75;12.75;;;;;;;;6184372;23;47227;-83
2021/09/18 01:57:47;;;;;;;;;12.50;12.00;;;;;;;;6157173;23;46841;-83
2021/09/18 02:00:13;;;;;;;;;13.75;13.50;;;;;;;;6157104;23;46729;-84
2021/09/18 02:02:38;;;;;;;;;18.75;13.75;;;;;;;;6183659;23;47168;-81
2021/09/18 02:05:04;;;;;;;;;13.25;13.25;;;;;;;;6183604;23;46908;-82
2021/09/18 02:07:30;;;;;;;;;14.25;13.50;;;;;;;;6184383;23;46937;-82
2021/09/18 02:09:55;;;;;;;;;15.00;12.75;;;;;;;;6184375;23;46940;-83
2021/09/18 02:12:20;;;;;;;;;11.75;11.50;;;;;;;;6184136;23;47103;-82
2021/09/18 02:14:45;;;;;;;;;15.25;13.75;;;;;;;;6184140;23;46952;-81
2021/09/18 02:17:11;;;;;;;;;14.00;13.00;;;;;;;;6184402;23;46866;-81
2021/09/18 02:19:36;;;;;;;;;13.75;13.25;;;;;;;;6184753;23;47133;-83
2021/09/18 02:22:02;;;;;;;;;14.00;12.75;;;;;;;;6156031;23;49062;-82
2021/09/18 02:24:27;;;;;;;;;12.25;12.25;;;;;;;;6184200;23;46993;-82
2021/09/18 02:26:52;;;;;;;;;15.50;10.75;;;;;;;;6184203;23;46882;-83
2021/09/18 02:29:18;;;;;;;;;13.00;13.00;;;;;;;;6157479;23;47576;-83
2021/09/18 02:31:43;;;;;;;;;12.75;12.25;;;;;;;;6184333;23;47081;-85
2021/09/18 02:34:08;;;;;;;;;15.00;13.00;;;;;;;;6157100;23;46997;-83
2021/09/18 02:36:34;;;;;;;;;15.25;11.25;;;;;;;;6183683;23;46808;-85
2021/09/18 02:38:59;;;;;;;;;12.50;11.75;;;;;;;;6184308;23;47073;-83
2021/09/18 02:41:24;;;;;;;;;15.00;12.75;;;;;;;;6183802;23;47686;-83
2021/09/18 02:43:50;;;;;;;;;11.75;10.75;;;;;;;;6156775;23;46833;-83
2021/09/18 02:46:15;;;;;;;;;12.25;11.50;;;;;;;;6184125;23;46776;-83
2021/09/18 02:48:40;;;;;;;;;15.50;10.50;;;;;;;;6184418;23;47203;-83
2021/09/18 02:51:06;;;;;;;;;13.25;11.50;;;;;;;;6156611;23;48882;-84
2021/09/18 02:53:31;;;;;;;;;14.25;13.50;;;;;;;;6184147;23;46716;-83
2021/09/18 02:55:59;;;;;;;;;12.75;11.00;;;;;;;;6184278;23;46686;-84
2021/09/18 02:58:24;;;;;;;;;11.00;11.00;;;;;;;;6183891;23;47171;-83
2021/09/18 03:00:49;;;;;;;;;9.00;8.00;;;;;;;;6156610;23;47800;-84
2021/09/18 03:03:15;;;;;;;;;14.00;13.00;;;;;;;;6183979;23;46968;-84
2021/09/18 03:05:40;;;;;;;;;13.50;11.25;;;;;;;;6184086;23;46826;-84
2021/09/18 03:08:05;;;;;;;;;13.50;12.00;;;;;;;;6184545;23;47065;-83
2021/09/18 03:10:31;;;;;;;;;11.75;11.00;;;;;;;;6183798;23;47885;-84
2021/09/18 03:12:56;;;;;;;;;10.25;10.25;;;;;;;;6183820;23;46868;-84
2021/09/18 03:15:22;;;;;;;;;10.25;10.00;;;;;;;;6156600;23;46886;-83
2021/09/18 03:17:47;;;;;;;;;11.00;10.50;;;;;;;;6184262;23;46959;-83
2021/09/18 03:20:12;;;;;;;;;13.25;11.00;;;;;;;;6156071;23;48442;-83
2021/09/18 03:22:38;;;;;;;;;12.00;11.00;;;;;;;;6183758;23;46926;-83
2021/09/18 03:25:04;;;;;;;;;12.00;11.00;;;;;;;;6183957;23;46785;-83
2021/09/18 03:27:29;;;;;;;;;14.75;12.00;;;;;;;;6183743;23;46763;-83
2021/09/18 03:29:55;;;;;;;;;12.50;11.00;;;;;;;;6183743;23;46812;-84
2021/09/18 03:32:20;;;;;;;;;13.75;11.75;;;;;;;;6183757;23;46753;-84
2021/09/18 03:34:45;;;;;;;;;10.00;9.75;;;;;;;;6183904;23;46768;-83
2021/09/18 03:37:11;;;;;;;;;11.75;11.00;;;;;;;;6183276;23;46787;-83
2021/09/18 03:39:36;;;;;;;;;10.50;10.50;;;;;;;;6184019;23;48108;-83
2021/09/18 03:42:02;;;;;;;;;10.75;10.50;;;;;;;;6183638;23;46625;-83
2021/09/18 03:44:29;;;;;;;;;14.00;11.50;;;;;;;;6153497;23;47012;-83
2021/09/18 03:46:54;;;;;;;;;9.50;9.50;;;;;;;;6127992;23;47045;-83
2021/09/18 03:49:19;;;;;;;;;11.00;10.50;;;;;;;;6155002;23;46832;-83
2021/09/18 03:51:45;;;;;;;;;11.50;11.25;;;;;;;;6154676;23;47042;-83
2021/09/18 03:54:10;;;;;;;;;12.00;12.00;;;;;;;;6155035;23;47156;-83
2021/09/18 03:56:35;;;;;;;;;13.50;13.50;;;;;;;;6128534;23;46828;-83
2021/09/18 03:59:01;;;;;;;;;13.50;12.25;;;;;;;;6127649;23;47132;-83
2021/09/18 04:01:26;;;;;;;;;11.75;10.00;;;;;;;;6154788;23;46911;-82
2021/09/18 04:03:51;;;;;;;;;12.75;11.75;;;;;;;;6154637;23;46792;-83
2021/09/18 04:06:17;;;;;;;;;12.50;11.50;;;;;;;;6128094;23;46908;-83
2021/09/18 04:08:44;;;;;;;;;11.75;10.50;;;;;;;;6127536;23;47110;-83
2021/09/18 04:11:10;;;;;;;;;11.75;10.25;;;;;;;;6154475;23;46864;-83
2021/09/18 04:13:35;;;;;;;;;12.00;10.50;;;;;;;;6154907;23;46710;-83
2021/09/18 04:16:01;;;;;;;;;10.75;10.50;;;;;;;;6154972;23;46593;-83
2021/09/18 04:18:26;;;;;;;;;11.75;11.00;;;;;;;;6154687;23;47144;-83
2021/09/18 04:20:51;;;;;;;;;10.75;10.50;;;;;;;;6127551;23;46629;-83
2021/09/18 04:23:17;;;;;;;;;11.00;9.00;;;;;;;;6154879;23;46857;-83
2021/09/18 04:25:42;;;;;;;;;11.00;10.25;;;;;;;;6154965;23;46728;-83
2021/09/18 04:28:07;;;;;;;;;11.75;10.75;;;;;;;;6154753;23;46750;-83
2021/09/18 04:30:33;;;;;;;;;11.25;10.00;;;;;;;;6127769;23;46829;-83
2021/09/18 04:32:58;;;;;;;;;9.75;9.75;;;;;;;;6154887;23;46917;-82
2021/09/18 04:35:24;;;;;;;;;10.75;10.50;;;;;;;;6154735;23;46887;-83
2021/09/18 04:37:49;;;;;;;;;9.25;8.75;;;;;;;;6154179;23;47176;-83
2021/09/18 04:40:14;;;;;;;;;8.25;8.00;;;;;;;;6154792;23;46951;-83
2021/09/18 04:42:40;;;;;;;;;10.75;10.75;;;;;;;;6154456;23;47141;-83
2021/09/18 04:45:05;;;;;;;;;11.00;10.75;;;;;;;;6154712;23;46777;-83
2021/09/18 04:47:31;;;;;;;;;10.25;10.25;;;;;;;;6154425;23;47880;-83
2021/09/18 04:49:56;;;;;;;;;11.00;10.25;;;;;;;;6154193;23;46907;-83
2021/09/18 04:52:22;;;;;;;;;12.25;12.25;;;;;;;;6154734;23;46824;-83
2021/09/18 04:54:47;;;;;;;;;9.75;9.25;;;;;;;;6154873;23;47230;-83
2021/09/18 04:57:12;;;;;;;;;9.50;9.50;;;;;;;;6153759;23;46974;-82
2021/09/18 04:59:38;;;;;;;;;12.00;10.00;;;;;;;;6154448;23;46777;-82
2021/09/18 05:02:03;;;;;;;;;11.00;11.00;;;;;;;;6127389;23;46973;-83
2021/09/18 05:04:28;;;;;;;;;10.00;10.00;;;;;;;;6154864;23;46694;-83
2021/09/18 05:06:54;;;;;;;;;10.25;10.00;;;;;;;;6127318;23;47267;-83
2021/09/18 05:09:19;;;;;;;;;9.50;7.75;;;;;;;;6154555;23;46797;-83
2021/09/18 05:11:44;;;;;;;;;10.00;9.00;;;;;;;;6154762;23;46637;-83
2021/09/18 05:14:10;;;;;;;;;9.75;9.25;;;;;;;;6154746;23;46891;-83
2021/09/18 05:16:35;;;;;;;;;9.25;8.00;;;;;;;;6127724;23;48381;-82
2021/09/18 05:19:00;;;;;;;;;11.00;9.50;;;;;;;;6154653;23;46662;-83
2021/09/18 05:21:26;;;;;;;;;11.25;10.75;;;;;;;;6154351;23;46707;-83
2021/09/18 05:23:52;;;;;;;;;10.00;10.00;;;;;;;;6154120;23;47245;-83
2021/09/18 05:26:17;;;;;;;;;11.25;10.00;;;;;;;;6153492;23;46759;-82
2021/09/18 05:28:43;;;;;;;;;9.50;8.75;;;;;;;;6154297;23;46763;-82
2021/09/18 05:31:08;;;;;;;;;12.25;11.00;;;;;;;;6154689;23;46913;-81
2021/09/18 05:33:33;;;;;;;;;9.75;9.75;;;;;;;;6127564;23;46903;-82
2021/09/18 05:35:59;;;;;;;;;10.00;9.50;;;;;;;;6153814;23;47289;-82
2021/09/18 05:38:24;;;;;;;;;9.50;9.50;;;;;;;;6153708;23;46872;-81
2021/09/18 05:40:50;;;;;;;;;11.50;11.00;;;;;;;;6154118;23;47435;-81
2021/09/18 05:43:15;;;;;;;;;9.75;9.00;;;;;;;;6154138;23;47208;-82
2021/09/18 05:45:40;;;;;;;;;11.25;9.75;;;;;;;;6154209;23;47978;-83
2021/09/18 05:48:06;;;;;;;;;8.25;8.00;;;;;;;;6154147;23;46903;-83
2021/09/18 05:50:32;;;;;;;;;9.25;8.50;;;;;;;;6154156;23;46896;-82
2021/09/18 05:52:57;;;;;;;;;10.50;9.00;;;;;;;;6154758;23;46947;-83
2021/09/18 05:55:22;;;;;;;;;9.00;9.00;;;;;;;;6154542;23;47591;-83
2021/09/18 05:57:48;;;;;;;;;9.75;9.75;;;;;;;;6154212;23;46941;-83
2021/09/18 06:00:13;;;;;;;;;8.75;8.50;;;;;;;;6154268;23;46775;-83
2021/09/18 06:02:41;;;;;;;;;9.00;8.00;;;;;;;;6154184;23;46680;-83
2021/09/18 06:05:07;;;;;;;;;7.75;6.75;;;;;;;;6153830;23;46895;-82
2021/09/18 06:07:32;;;;;;;;;8.25;8.25;;;;;;;;6127521;23;46753;-82
2021/09/18 06:09:58;;;;;;;;;8.00;7.25;;;;;;;;6153608;23;46845;-82
2021/09/18 06:12:25;;;;;;;;;9.00;9.00;;;;;;;;6154064;23;46788;-85
2021/09/18 06:14:51;;;;;;;;;9.75;9.75;;;;;;;;6154313;23;46949;-85
2021/09/18 06:17:16;;;;;;;;;8.25;8.25;;;;;;;;6154244;23;46914;-85
2021/09/18 06:19:41;;;;;;;;;8.75;8.00;;;;;;;;6153718;23;47133;-85
2021/09/18 06:22:07;;;;;;;;;8.00;7.00;;;;;;;;6154283;23;46818;-86
2021/09/18 06:24:32;;;;;;;;;9.25;8.25;;;;;;;;6127041;23;46860;-81
2021/09/18 06:26:57;;;;;;;;;11.00;10.00;;;;;;;;6127280;23;46833;-83
2021/09/18 06:29:23;;;;;;;;;8.00;8.00;;;;;;;;6154258;23;46914;-84
2021/09/18 06:31:48;;;;;;;;;7.00;6.50;;;;;;;;6127545;23;47149;-88
2021/09/18 06:34:14;;;;;;;;;5.00;5.00;;;;;;;;6153808;23;47617;-87
2021/09/18 06:36:39;;;;;;;;;7.50;6.50;;;;;;;;6153121;23;46852;-87
2021/09/18 06:39:04;;;;;;;;;8.75;7.75;;;;;;;;6154196;23;46883;-87
2021/09/18 06:41:30;;;;;;;;;7.50;6.50;;;;;;;;6154516;23;46702;-84
2021/09/18 06:43:55;;;;;;;;;10.00;8.25;;;;;;;;6154012;23;46899;-86
2021/09/18 06:46:20;;;;;;;;;7.00;7.00;;;;;;;;6154159;23;46803;-85
2021/09/18 06:48:46;;;;;;;;;9.00;8.25;;;;;;;;6154091;23;46824;-86
2021/09/18 06:51:11;;;;;;;;;9.25;7.75;;;;;;;;6153957;23;46691;-84
2021/09/18 06:53:37;;;;;;;;;6.75;6.75;;;;;;;;6127145;23;48556;-83
2021/09/18 06:56:02;;;;;;;;;9.00;8.25;;;;;;;;6127038;23;46888;-82
2021/09/18 06:58:27;;;;;;;;;8.25;8.25;;;;;;;;6153836;23;47214;-81
2021/09/18 07:00:53;;;;;;;;;7.75;7.00;;;;;;;;6154190;23;47260;-83
2021/09/18 07:03:18;;;;;;;;;8.75;7.00;;;;;;;;6153486;23;47588;-81
2021/09/18 07:05:43;;;;;;;;;9.00;8.50;;;;;;;;6153637;23;47119;-81
2021/09/18 07:08:09;;;;;;;;;7.00;6.00;;;;;;;;6153740;23;47007;-81
2021/09/18 07:10:34;;;;;;;;;10.00;8.00;;;;;;;;6154257;23;46839;-82
2021/09/18 07:13:00;;;;;;;;;9.00;8.00;;;;;;;;6153813;23;47805;-82
2021/09/18 07:15:25;;;;;;;;;7.75;6.50;;;;;;;;6154067;23;46928;-82
2021/09/18 07:17:50;;;;;;;;;9.00;9.00;;;;;;;;6153773;23;46858;-82
2021/09/18 07:20:16;;;;;;;;;11.50;9.25;;;;;;;;6125773;23;46895;-82
2021/09/18 07:22:42;;;;;;;;;8.75;7.50;;;;;;;;6153442;23;46963;-82
2021/09/18 07:25:07;;;;;;;;;5.50;5.50;;;;;;;;6154152;23;46876;-82
2021/09/18 07:27:33;;;;;;;;;5.75;5.50;;;;;;;;6153430;23;46940;-82
2021/09/18 07:29:58;;;;;;;;;9.25;9.25;;;;;;;;6154438;23;46800;-82
2021/09/18 07:32:24;;;;;;;;;7.00;7.00;;;;;;;;6126844;23;48972;-83
2021/09/18 07:34:49;;;;;;;;;7.75;6.00;;;;;;;;6153831;23;46777;-82
2021/09/18 07:37:15;;;;;;;;;8.25;7.25;;;;;;;;6153240;23;46669;-82
2021/09/18 07:39:40;;;;;;;;;8.25;7.25;;;;;;;;6153835;23;46737;-82
2021/09/18 07:42:05;;;;;;;;;7.25;7.00;;;;;;;;6153045;23;46773;-82
2021/09/18 07:44:31;;;;;;;;;9.00;7.00;;;;;;;;6153445;23;46779;-83
2021/09/18 07:46:56;;;;;;;;;8.75;8.75;;;;;;;;6153678;23;47027;-82
2021/09/18 07:49:22;;;;;;;;;7.75;7.75;;;;;;;;6153849;23;46679;-82
2021/09/18 07:51:47;;;;;;;;;6.75;6.75;;;;;;;;6153498;23;47831;-82
2021/09/18 07:54:13;;;;;;;;;7.50;6.50;;;;;;;;6126781;23;46781;-82
2021/09/18 07:56:38;;;;;;;;;11.50;9.00;;;;;;;;6153442;23;46689;-82
2021/09/18 07:59:04;;;;;;;;;10.00;9.25;;;;;;;;6153542;23;46954;-82
2021/09/18 08:01:33;;;;;;;;;6.50;5.25;;;;;;;;6126266;23;48931;-82
2021/09/18 08:04:01;;;;;;;;;7.25;6.00;;;;;;;;6153170;23;47089;-82
2021/09/18 08:06:26;;;;;;;;;6.00;5.50;;;;;;;;6152891;23;46634;-82
2021/09/18 08:08:52;;;;;;;;;7.50;7.00;;;;;;;;6126507;23;46817;-82
2021/09/18 08:11:19;;;;;;;;;8.25;7.00;;;;;;;;6152947;23;46788;-82
2021/09/18 08:13:45;;;;;;;;;8.75;8.00;;;;;;;;6126166;23;47831;-82
2021/09/18 08:16:10;;;;;;;;;8.50;7.75;;;;;;;;6125901;23;46882;-82
2021/09/18 08:18:35;;;;;;;;;6.00;6.00;;;;;;;;6152919;23;47183;-82
2021/09/18 08:21:01;;;;;;;;;4.25;4.00;;;;;;;;6152218;23;47696;-82
2021/09/18 08:23:26;;;;;;;;;11.25;10.25;;;;;;;;6152683;23;46810;-82
2021/09/18 08:25:52;;;;;;;;;8.50;6.75;;;;;;;;6152572;23;46792;-86
2021/09/18 08:28:17;;;;;;;;;4.50;4.25;;;;;;;;6152849;23;47099;-82
2021/09/18 08:30:42;;;;;;;;;9.00;8.00;;;;;;;;6152040;23;46876;-83
2021/09/18 08:33:08;;;;;;;;;6.75;5.00;;;;;;;;6126430;23;46956;-83
2021/09/18 08:35:33;;;;;;;;;8.00;7.50;;;;;;;;6153894;23;46870;-84
2021/09/18 08:37:58;;;;;;;;;6.50;6.25;;;;;;;;6127350;23;46768;-83
2021/09/18 08:40:26;;;;;;;;;3.50;3.25;;;;;;;;6154308;23;47768;-84
2021/09/18 08:42:52;;;;;;;;;5.50;5.00;;;;;;;;6154076;23;46713;-83
2021/09/18 08:45:18;;;;;;;;;5.50;5.25;;;;;;;;6127450;23;46723;-83
2021/09/18 08:47:43;;;;;;;;;4.25;4.00;;;;;;;;6154251;23;46958;-83
2021/09/18 08:50:13;;;;;;;;;6.25;5.00;;;;;;;;6127055;23;49142;-83
2021/09/18 08:52:40;;;;;;;;;2.75;2.75;;;;;;;;6154293;23;46955;-83
2021/09/18 08:55:05;;;;;;;;;4.75;3.50;;;;;;;;6154172;23;46720;-83
2021/09/18 08:57:30;;;;;;;;;6.50;6.00;;;;;;;;6127590;23;47181;-83
2021/09/18 08:59:56;;;;;;;;;3.00;3.00;;;;;;;;6154230;23;47606;-84
2021/09/18 09:02:23;;;;;;;;;4.75;3.50;;;;;;;;6153883;23;46826;-83
2021/09/18 09:05:00;;;;;;;;;3.50;2.75;;;;;;;;6153925;23;46942;-84
2021/09/18 09:07:25;;;;;;;;;6.50;5.25;;;;;;;;6154258;23;47230;-83
2021/09/18 09:09:53;;;;;;;;;5.25;5.00;;;;;;;;6153881;23;46811;-83
2021/09/18 09:12:31;;;;;;;;;4.00;3.00;;;;;;;;6153777;23;46873;-82
2021/09/18 09:14:58;;;;;;;;;3.50;3.50;;;;;;;;6154112;23;46867;-84
2021/09/18 09:20:30;;;;;;;;;7.00;6.75;;;;;;;;6154360;23;47259;-85
2021/09/18 09:22:55;;;;;;;;;6.25;6.00;;;;;;;;6153840;23;47027;-84
2021/09/18 09:25:25;;;;;;;;;4.50;3.50;;;;;;;;6154156;23;46851;-83
2021/09/18 09:27:50;;;;;;;;;9.00;7.00;;;;;;;;6154104;23;46721;-83
2021/09/18 09:30:25;;;;;;;;;2.25;2.25;;;;;;;;6153969;23;47824;-82
2021/09/18 09:32:50;;;;;;;;;6.50;6.00;;;;;;;;6153932;23;46995;-83
2021/09/18 09:35:15;;;;;;;;;4.00;4.00;;;;;;;;6153606;23;46788;-83
2021/09/18 09:37:51;;;;;;;;;4.50;4.50;;;;;;;;6126870;23;47139;-83
2021/09/18 09:40:29;;;;;;;;;4.25;3.25;;;;;;;;6127158;23;46954;-84
2021/09/18 09:42:55;;;;;;;;;3.75;3.75;;;;;;;;6126524;23;47023;-83
2021/09/18 09:45:22;;;;;;;;;2.25;2.00;;;;;;;;6154165;23;46899;-83
2021/09/18 09:48:02;;;;;;;;;5.75;5.25;;;;;;;;6154306;23;47206;-83
2021/09/18 09:50:28;;;;;;;;;3.50;3.50;;;;;;;;6153682;23;46914;-82
2021/09/18 09:52:56;;;;;;;;;3.25;3.00;;;;;;;;6153810;23;46900;-84
2021/09/18 09:55:21;;;;;;;;;2.25;2.25;;;;;;;;6153928;23;46914;-83
2021/09/18 09:57:57;;;;;;;;;5.00;5.00;;;;;;;;6154357;23;46920;-82
2021/09/18 10:00:23;;;;;;;;;4.75;4.00;;;;;;;;6153524;23;46910;-81
2021/09/18 10:02:48;;;;;;;;;4.00;4.00;;;;;;;;6153620;23;46874;-81
2021/09/18 10:05:15;;;;;;;;;3.00;3.00;;;;;;;;6126906;23;46759;-81
2021/09/18 10:07:41;;;;;;;;;4.25;4.25;;;;;;;;6127248;23;46692;-81
2021/09/18 10:10:07;;;;;;;;;3.25;3.25;;;;;;;;6153605;23;47251;-81
2021/09/18 10:12:33;;;;;;;;;6.50;5.25;;;;;;;;6126803;23;47186;-81
2021/09/18 10:15:01;;;;;;;;;2.25;2.25;;;;;;;;6153620;23;46736;-81
2021/09/18 10:17:28;;;;;;;;;6.50;6.00;;;;;;;;6126160;23;46855;-81
2021/09/18 10:20:04;;;;;;;;;5.50;5.25;;;;;;;;6153423;23;47222;-83
2021/09/18 10:25:16;;;;;;;;;1.50;1.50;;;;;;;;6153942;23;46839;-81
2021/09/18 10:27:58;;;;;;;;;3.75;3.75;;;;;;;;6153386;23;47213;-82
2021/09/18 10:30:47;;;;;;;;;3.00;2.75;;;;;;;;6126702;23;49350;-81
2021/09/18 10:33:27;;;;;;;;;5.50;4.50;;;;;;;;6133645;23;46977;-80
2021/09/18 10:35:57;;;;;;;;;4.50;2.50;;;;;;;;6153075;23;46914;-86
2021/09/18 10:38:24;;;;;;;;;4.50;4.00;;;;;;;;6152836;23;46961;-83
2021/09/18 10:40:53;;;;;;;;;3.75;2.75;;;;;;;;6152449;23;47925;-84
2021/09/18 10:43:26;;;;;;;;;2.75;2.75;;;;;;;;6152703;23;47013;-83
2021/09/18 10:45:51;;;;;;;;;2.25;2.00;;;;;;;;6153289;23;46898;-83
2021/09/18 10:48:35;;;;;;;;;3.75;3.00;;;;;;;;6153840;23;46860;-82
2021/09/18 10:51:01;;;;;;;;;0.50;0.50;;;;;;;;6153548;23;46967;-83
2021/09/18 10:53:26;;;;;;;;;0.75;0.75;;;;;;;;6153730;23;47066;-85
2021/09/18 10:55:53;;;;;;;;;4.00;2.75;;;;;;;;6152683;23;46839;-82
2021/09/18 10:58:19;;;;;;;;;1.00;0.75;;;;;;;;6153529;23;46849;-83
2021/09/18 11:00:50;;;;;;;;;2.75;2.75;;;;;;;;6153433;23;47736;-83
2021/09/18 11:03:31;;;;;;;;;4.00;2.75;;;;;;;;6152521;23;46850;-83
2021/09/18 11:05:58;;;;;;;;;1.75;1.75;;;;;;;;6153142;23;46722;-82
2021/09/18 11:08:24;;;;;;;;;3.75;3.00;;;;;;;;6153941;23;46674;-81
2021/09/18 11:10:52;;;;;;;;;1.00;1.00;;;;;;;;6153488;23;46825;-83
2021/09/18 11:13:23;;;;;;;;;2.75;2.75;;;;;;;;6153126;23;46859;-83
2021/09/18 11:15:58;;;;;;;;;4.75;3.75;;;;;;;;6153466;23;46759;-84
2021/09/18 11:18:37;;;;;;;;;3.00;3.00;;;;;;;;6153683;23;46971;-89
2021/09/18 11:21:06;;;;;;;;;1.75;1.75;;;;;;;;6152574;23;46946;-82
2021/09/18 11:23:33;;;;;;;;;0.00;0.00;;;;;;;;6153250;23;46950;-83
2021/09/18 11:25:58;;;;;;;;;1.25;1.00;;;;;;;;6153404;23;46841;-82
2021/09/18 11:28:31;;;;;;;;;4.50;3.00;;;;;;;;6153458;23;47190;-83
2021/09/18 11:30:56;;;;;;;;;3.50;3.25;;;;;;;;6153292;23;47953;-82
2021/09/18 11:33:23;;;;;;;;;4.00;4.00;;;;;;;;6153206;23;46737;-82
2021/09/18 11:35:53;;;;;;;;;4.50;3.00;;;;;;;;6153047;23;46875;-82
2021/09/18 11:38:22;;;;;;;;;3.00;3.00;;;;;;;;6126296;23;47054;-82
2021/09/18 11:40:48;;;;;;;;;4.50;3.00;;;;;;;;6152711;23;48076;-83
2021/09/18 11:43:13;;;;;;;;;4.50;3.50;;;;;;;;6153170;23;46801;-82
2021/09/18 11:45:39;;;;;;;;;5.25;5.00;;;;;;;;6152873;23;46814;-82
2021/09/18 11:48:05;;;;;;;;;5.75;5.75;;;;;;;;6153687;23;46948;-82
2021/09/18 11:50:31;;;;;;;;;4.00;4.00;;;;;;;;6153014;23;47731;-82
2021/09/18 11:52:58;;;;;;;;;2.00;2.00;;;;;;;;6152995;23;46975;-82
2021/09/18 11:55:28;;;;;;;;;5.50;4.00;;;;;;;;6153049;23;46836;-82
2021/09/18 11:58:00;;;;;;;;;2.50;2.50;;;;;;;;6152806;23;47151;-82
2021/09/18 12:00:25;;;;;;;;;1.25;1.25;;;;;;;;6153104;23;47168;-81
2021/09/18 12:02:54;;;;;;;;;4.50;4.50;;;;;;;;6126122;23;47683;-81
2021/09/18 12:05:20;;;;;;;;;0.00;0.00;;;;;;;;6153072;23;46911;-81
2021/09/18 12:07:46;;;;;;;;;4.00;4.00;;;;;;;;6154466;23;46761;-81
2021/09/18 12:10:15;;;;;;;;;4.00;4.00;;;;;;;;6127487;23;48394;-83
2021/09/18 12:12:40;;;;;;;;;2.00;2.00;;;;;;;;6127474;23;47242;-82
2021/09/18 12:15:06;;;;;;;;;7.50;4.50;;;;;;;;6154623;23;46859;-82
2021/09/18 12:17:37;;;;;;;;;2.50;2.50;;;;;;;;6154806;23;46693;-82
2021/09/18 12:20:07;;;;;;;;;4.00;3.25;;;;;;;;6153926;23;47913;-82
2021/09/18 12:22:32;;;;;;;;;2.75;2.00;;;;;;;;6154016;23;46990;-82
2021/09/18 12:24:57;;;;;;;;;2.50;2.50;;;;;;;;6154435;23;46965;-83
2021/09/18 12:27:31;;;;;;;;;5.00;3.00;;;;;;;;6154508;23;47072;-82
2021/09/18 12:30:07;;;;;;;;;2.50;2.50;;;;;;;;6127619;23;48308;-82
2021/09/18 12:32:33;;;;;;;;;1.75;1.75;;;;;;;;6154075;23;47694;-82
2021/09/18 12:35:02;;;;;;;;;2.50;2.50;;;;;;;;6154558;23;46747;-83
2021/09/18 12:37:32;;;;;;;;;2.25;2.00;;;;;;;;6153977;23;46911;-82
2021/09/18 12:40:20;;;;;;;;;3.00;3.00;;;;;;;;6154433;23;47767;-83
2021/09/18 12:43:04;;;;;;;;;3.00;3.00;;;;;;;;6127269;23;47060;-82
2021/09/18 12:45:34;;;;;;;;;1.00;1.00;;;;;;;;6127781;23;46772;-82
2021/09/18 12:48:18;;;;;;;;;2.00;2.00;;;;;;;;6154678;23;46749;-83
2021/09/18 12:50:52;;;;;;;;;2.00;2.00;;;;;;;;6153665;23;47289;-82
2021/09/18 12:53:28;;;;;;;;;1.00;1.00;;;;;;;;6154685;23;46942;-82
2021/09/18 12:56:14;;;;;;;;;3.00;3.00;;;;;;;;6154350;23;46751;-82
2021/09/18 12:58:40;;;;;;;;;3.00;3.00;;;;;;;;6127670;23;46877;-83
2021/09/18 13:01:07;;;;;;;;;4.00;3.00;;;;;;;;6154470;23;46996;-82
2021/09/18 13:03:33;;;;;;;;;3.75;3.75;;;;;;;;6154083;23;46750;-83
2021/09/18 13:06:12;;;;;;;;;2.75;2.00;;;;;;;;6154607;23;46765;-83
2021/09/18 13:08:42;;;;;;;;;2.50;2.50;;;;;;;;6154578;23;47111;-83
2021/09/18 13:11:15;;;;;;;;;4.50;3.00;;;;;;;;6154282;23;47923;-84
2021/09/18 13:13:40;;;;;;;;;1.00;1.00;;;;;;;;6127550;23;47513;-82
2021/09/18 13:16:06;;;;;;;;;2.50;2.50;;;;;;;;6154605;23;46857;-83
2021/09/18 13:18:34;;;;;;;;;2.00;2.00;;;;;;;;6153956;23;47186;-84
2021/09/18 13:21:19;;;;;;;;;4.00;3.00;;;;;;;;6154142;23;47806;-83
2021/09/18 13:23:45;;;;;;;;;3.75;3.25;;;;;;;;6127126;23;46975;-82
2021/09/18 13:26:10;;;;;;;;;2.00;2.00;;;;;;;;6154363;23;46879;-83
2021/09/18 13:28:52;;;;;;;;;2.75;2.75;;;;;;;;6154621;23;46877;-83
2021/09/18 13:31:17;;;;;;;;;1.00;1.00;;;;;;;;6127082;23;49156;-82
2021/09/18 13:33:42;;;;;;;;;2.00;1.50;;;;;;;;6154258;23;46840;-82
2021/09/18 13:36:08;;;;;;;;;2.25;2.25;;;;;;;;6153997;23;46836;-83
2021/09/18 13:38:33;;;;;;;;;2.00;2.00;;;;;;;;6127148;23;46819;-84
2021/09/18 13:40:59;;;;;;;;;2.00;2.00;;;;;;;;6154402;23;46718;-84
2021/09/18 13:43:25;;;;;;;;;2.00;1.75;;;;;;;;6127467;23;46963;-84
2021/09/18 13:46:02;;;;;;;;;2.00;2.00;;;;;;;;6154614;23;46895;-85
2021/09/18 13:48:27;;;;;;;;;2.00;2.00;;;;;;;;6127527;23;47060;-82
2021/09/18 13:50:53;;;;;;;;;6.25;4.00;;;;;;;;6126655;23;47001;-84
2021/09/18 13:53:18;;;;;;;;;2.00;1.75;;;;;;;;6153889;23;47021;-84
2021/09/18 13:55:43;;;;;;;;;3.00;1.00;;;;;;;;6154346;23;46887;-85
2021/09/18 13:58:09;;;;;;;;;3.50;3.25;;;;;;;;6154283;23;46874;-84
2021/09/18 14:00:34;;;;;;;;;1.00;1.00;;;;;;;;6154335;23;46778;-84
2021/09/18 14:03:01;;;;;;;;;3.00;3.00;;;;;;;;6153725;23;46740;-84
2021/09/18 14:05:48;;;;;;;;;2.50;2.50;;;;;;;;6153888;23;46943;-87
2021/09/18 14:08:13;;;;;;;;;3.00;3.00;;;;;;;;6154183;23;47087;-87
2021/09/18 14:10:38;;;;;;;;;3.00;3.00;;;;;;;;6153975;23;47607;-83
2021/09/18 14:13:04;;;;;;;;;4.50;3.25;;;;;;;;6154194;23;47011;-87
2021/09/18 14:15:29;;;;;;;;;2.00;2.00;;;;;;;;6154400;23;46926;-86
2021/09/18 14:17:55;;;;;;;;;1.75;1.75;;;;;;;;6154135;23;47068;-85
2021/09/18 14:20:20;;;;;;;;;3.50;3.00;;;;;;;;6153657;23;46977;-85
2021/09/18 14:22:46;;;;;;;;;1.00;1.00;;;;;;;;6153907;23;46955;-85
2021/09/18 14:25:12;;;;;;;;;1.50;1.50;;;;;;;;6153901;23;46953;-84
2021/09/18 14:27:40;;;;;;;;;1.50;1.00;;;;;;;;6154069;23;46939;-86
2021/09/18 14:30:09;;;;;;;;;2.00;2.00;;;;;;;;6153741;23;47748;-89
2021/09/18 14:32:34;;;;;;;;;1.00;1.00;;;;;;;;6127193;23;46999;-86
2021/09/18 14:35:02;;;;;;;;;2.00;2.00;;;;;;;;6127124;23;46932;-87
2021/09/18 14:37:27;;;;;;;;;1.00;1.00;;;;;;;;6153443;23;47102;-88